Time;durP1;ratioP1;P1;durP2;ratioP2;P2;SDS_P1;SDS_P2;PMS_P1;PMS_P2;Temp;Humidity;BMP_temperature;BMP_pressure;BME280_temperature;BME280_humidity;BME280_pressure;Samples;Min_cycle;Max_cycle;Signal;HPM_P1;HPM_P2
2022/10/31 00:01:37;;;;;;;0.10;0.10;;;11.60;99.90;10.60;97403.00;;;;5015283;28;20714;-72
2022/10/31 00:04:06;;;;;;;0.10;0.10;;;11.60;99.90;10.40;97428.00;;;;5013085;28;20242;-71
2022/10/31 00:06:36;;;;;;;0.10;0.10;;;11.40;99.90;10.40;97438.00;;;;5013402;28;20180;-72
2022/10/31 00:09:05;;;;;;;0.10;0.10;;;11.50;99.90;10.40;97432.00;;;;5020115;28;20654;-73
2022/10/31 00:11:33;;;;;;;0.10;0.10;;;11.50;99.90;10.40;97442.00;;;;5031477;28;20666;-72
2022/10/31 00:14:02;;;;;;;0.10;0.10;;;11.50;99.90;10.50;97431.00;;;;5017417;28;20204;-71
2022/10/31 00:16:31;;;;;;;0.10;0.10;;;11.50;99.90;10.60;97434.00;;;;5019683;28;20222;-72
2022/10/31 00:19:03;;;;;;;0.10;0.10;;;11.50;99.90;10.60;97447.00;;;;5026299;28;20206;-72
2022/10/31 00:21:32;;;;;;;0.10;0.10;;;11.50;99.90;10.60;97440.00;;;;5024192;28;20212;-74
2022/10/31 00:24:02;;;;;;;0.10;0.10;;;11.70;99.90;10.60;97441.00;;;;5033249;28;20202;-71
2022/10/31 00:26:31;;;;;;;0.10;0.10;;;11.70;99.90;10.50;97434.00;;;;5024875;28;20216;-73
2022/10/31 00:29:01;;;;;;;0.10;0.10;;;11.60;99.90;10.30;97428.00;;;;5029235;28;20202;-73
2022/10/31 00:31:29;;;;;;;0.10;0.10;;;11.40;99.90;10.20;97443.00;;;;5023103;28;20199;-74
2022/10/31 00:33:59;;;;;;;0.00;0.00;;;11.30;99.90;10.30;97437.00;;;;5026594;28;20195;-73
2022/10/31 00:36:27;;;;;;;0.10;0.10;;;11.40;99.90;10.40;97448.00;;;;5030717;28;20225;-73
2022/10/31 00:38:55;;;;;;;0.10;0.10;;;11.50;99.90;10.40;97452.00;;;;5020447;28;20282;-72
2022/10/31 00:41:26;;;;;;;0.10;0.10;;;11.50;99.90;10.40;97454.00;;;;5011799;28;20191;-72
2022/10/31 00:43:54;;;;;;;0.10;0.10;;;11.40;99.90;10.30;97450.00;;;;5012734;28;20215;-71
2022/10/31 00:46:22;;;;;;;0.10;0.10;;;11.30;99.90;10.20;97454.00;;;;5019911;28;20250;-72
2022/10/31 00:48:51;;;;;;;0.10;0.10;;;11.20;99.90;10.30;97448.00;;;;5015473;28;20249;-72
2022/10/31 00:51:19;;;;;;;0.10;0.10;;;11.30;99.90;10.30;97458.00;;;;5015508;28;20376;-72
2022/10/31 00:53:47;;;;;;;0.10;0.10;;;11.30;99.90;10.40;97459.00;;;;5020440;28;20590;-72
2022/10/31 00:56:15;;;;;;;0.10;0.10;;;11.40;99.90;10.60;97465.00;;;;5011368;28;20242;-72
2022/10/31 00:58:45;;;;;;;0.10;0.10;;;11.50;99.90;10.50;97464.00;;;;5018824;28;20207;-71
2022/10/31 01:01:13;;;;;;;0.10;0.10;;;11.40;99.90;10.50;97461.00;;;;5019425;28;20191;-72
2022/10/31 01:03:41;;;;;;;0.00;0.00;;;11.50;99.90;10.50;97462.00;;;;5027391;28;20218;-72
2022/10/31 01:06:14;;;;;;;0.10;0.10;;;11.40;99.90;10.50;97459.00;;;;5027754;28;20219;-72
2022/10/31 01:08:42;;;;;;;0.10;0.10;;;11.50;99.90;10.60;97466.00;;;;5014108;28;20581;-72
2022/10/31 01:11:16;;;;;;;0.10;0.10;;;11.60;99.90;10.60;97460.00;;;;5022933;28;20195;-72
2022/10/31 01:13:46;;;;;;;0.10;0.10;;;11.60;99.90;10.70;97475.00;;;;5031479;28;20685;-72
2022/10/31 01:16:19;;;;;;;0.10;0.10;;;11.60;99.90;10.50;97466.00;;;;5031450;28;20254;-72
2022/10/31 01:18:48;;;;;;;0.10;0.10;;;11.50;99.90;10.40;97457.00;;;;5028483;28;20215;-72
2022/10/31 01:21:19;;;;;;;0.10;0.10;;;11.40;99.90;10.60;97404.00;;;;5020984;28;20191;-71
2022/10/31 01:23:49;;;;;;;0.10;0.10;;;11.50;99.90;10.40;97459.00;;;;5011393;28;20693;-72
2022/10/31 01:26:21;;;;;;;0.10;0.10;;;11.40;99.90;10.20;97451.00;;;;5016532;28;20701;-72
2022/10/31 01:28:53;;;;;;;0.05;0.05;;;11.20;99.90;10.00;97471.00;;;;5019746;28;20670;-72
2022/10/31 01:31:24;;;;;;;0.10;0.10;;;11.10;99.90;10.10;97440.00;;;;5021143;28;20195;-72
2022/10/31 01:33:53;;;;;;;0.10;0.10;;;11.10;99.90;10.20;97461.00;;;;5015110;28;20187;-72
2022/10/31 01:36:23;;;;;;;0.10;0.10;;;11.20;99.90;10.40;97462.00;;;;5027367;28;20257;-72
2022/10/31 01:38:54;;;;;;;0.10;0.10;;;11.30;99.90;10.40;97476.00;;;;5020324;28;20226;-72
2022/10/31 01:41:26;;;;;;;0.10;0.10;;;11.40;99.90;10.40;97454.00;;;;5028539;28;20605;-72
2022/10/31 01:43:58;;;;;;;0.00;0.00;;;11.40;99.90;10.50;97484.00;;;;5012130;28;20223;-72
2022/10/31 01:46:33;;;;;;;0.10;0.10;;;11.40;99.90;10.40;97454.00;;;;5016468;28;20227;-72
2022/10/31 01:49:05;;;;;;;0.10;0.10;;;11.30;99.90;10.10;97474.00;;;;5034550;28;20202;-72
2022/10/31 01:51:38;;;;;;;0.10;0.10;;;11.30;99.90;10.30;97441.00;;;;5018434;28;20253;-71
2022/10/31 01:54:11;;;;;;;0.10;0.10;;;11.30;99.90;10.20;97406.00;;;;5010941;28;20677;-71
2022/10/31 01:56:48;;;;;;;0.10;0.10;;;11.20;99.90;10.00;97465.00;;;;5017084;28;20203;-72
2022/10/31 01:59:21;;;;;;;0.10;0.10;;;11.10;99.90;9.60;97436.00;;;;5022520;28;20191;-70
2022/10/31 02:01:52;;;;;;;0.00;0.00;;;10.70;99.90;9.70;97451.00;;;;5023965;28;20187;-70
2022/10/31 02:04:25;;;;;;;0.05;0.05;;;10.70;99.90;9.80;97448.00;;;;5030996;28;20198;-71
2022/10/31 02:07:01;;;;;;;0.10;0.10;;;10.80;99.90;9.80;97442.00;;;;5030860;28;20198;-72
2022/10/31 02:09:32;;;;;;;0.00;0.00;;;10.80;99.90;9.80;97453.00;;;;5022088;28;20603;-71
2022/10/31 02:12:04;;;;;;;0.10;0.10;;;10.80;99.90;9.90;97453.00;;;;5017590;28;20278;-72
2022/10/31 02:14:36;;;;;;;0.10;0.10;;;10.80;99.90;10.10;97451.00;;;;5019324;28;20445;-71
2022/10/31 02:17:04;;;;;;;0.10;0.10;;;11.00;99.90;10.10;97452.00;;;;5010690;28;20196;-73
2022/10/31 02:19:46;;;;;;;0.00;0.00;;;11.10;99.90;10.10;97454.00;;;;5018750;28;20214;-72
2022/10/31 02:22:27;;;;;;;0.10;0.10;;;11.10;99.90;10.00;97450.00;;;;5018769;28;20689;-71
2022/10/31 02:25:22;;;;;;;0.10;0.10;;;11.00;99.90;10.00;97450.00;;;;5010158;28;20226;-72
2022/10/31 02:28:15;;;;;;;0.10;0.10;;;11.10;99.90;10.10;97447.00;;;;5017472;28;20195;-72
2022/10/31 02:31:09;;;;;;;0.10;0.10;;;11.20;99.90;10.10;97447.00;;;;5014240;28;20794;-73
2022/10/31 02:33:49;;;;;;;0.10;0.10;;;11.00;99.90;10.00;97437.00;;;;5023334;28;20214;-72
2022/10/31 02:36:27;;;;;;;0.10;0.10;;;11.00;99.90;9.20;97431.00;;;;5028417;28;20211;-72
2022/10/31 02:39:12;;;;;;;0.10;0.10;;;10.90;99.90;9.90;97443.00;;;;5021610;28;20230;-72
2022/10/31 02:41:53;;;;;;;0.10;0.10;;;11.00;99.90;9.90;97437.00;;;;5024540;28;20254;-71
2022/10/31 02:44:31;;;;;;;0.10;0.10;;;11.00;99.90;10.00;97449.00;;;;5041191;28;20294;-72
2022/10/31 02:47:07;;;;;;;0.00;0.00;;;10.90;99.90;9.80;97439.00;;;;5041313;28;20614;-71
2022/10/31 02:49:44;;;;;;;0.10;0.10;;;10.80;99.90;9.80;97432.00;;;;5033526;28;20190;-71
2022/10/31 02:52:19;;;;;;;0.10;0.10;;;10.70;99.90;9.60;97433.00;;;;5033487;28;20191;-71
2022/10/31 02:54:49;;;;;;;0.10;0.10;;;10.60;99.90;9.60;97435.00;;;;5034713;28;20203;-72
2022/10/31 02:57:24;;;;;;;0.10;0.10;;;10.70;99.90;9.60;97440.00;;;;5032904;28;20199;-72
2022/10/31 03:00:01;;;;;;;0.10;0.10;;;10.60;99.90;9.70;97463.00;;;;5013306;28;20199;-72
2022/10/31 03:02:51;;;;;;;0.10;0.10;;;10.80;99.90;9.60;97432.00;;;;5013182;28;20246;-72
2022/10/31 03:05:37;;;;;;;0.10;0.10;;;10.70;99.90;9.50;97436.00;;;;5029982;28;20228;-71
2022/10/31 03:08:15;;;;;;;0.10;0.10;;;10.60;99.90;9.60;97410.00;;;;5019518;28;20290;-71
2022/10/31 03:10:50;;;;;;;0.10;0.10;;;10.60;99.90;9.60;97444.00;;;;5021428;28;20282;-71
2022/10/31 03:13:31;;;;;;;0.10;0.10;;;10.60;99.90;9.60;97470.00;;;;5017097;28;20195;-72
2022/10/31 03:16:10;;;;;;;0.10;0.10;;;10.60;99.90;9.50;97388.00;;;;5023419;28;20227;-71
2022/10/31 03:18:46;;;;;;;0.10;0.10;;;10.50;99.90;9.50;97442.00;;;;5022577;28;20298;-71
2022/10/31 03:21:22;;;;;;;0.10;0.10;;;10.50;99.90;9.40;97445.00;;;;5024910;28;20207;-70
2022/10/31 03:23:55;;;;;;;0.10;0.10;;;10.40;99.90;9.20;97440.00;;;;5033687;28;20229;-71
2022/10/31 03:26:26;;;;;;;0.10;0.10;;;10.20;99.90;9.10;97454.00;;;;5027224;28;20724;-71
2022/10/31 03:28:59;;;;;;;0.10;0.10;;;10.10;99.90;9.20;97448.00;;;;5017450;28;20486;-71
2022/10/31 03:31:32;;;;;;;0.10;0.10;;;10.20;99.90;9.20;97454.00;;;;5038295;28;20218;-71
2022/10/31 03:34:05;;;;;;;0.00;0.00;;;10.20;99.90;9.30;97451.00;;;;5017124;28;20215;-71
2022/10/31 03:36:36;;;;;;;0.10;0.10;;;10.30;99.90;9.20;97447.00;;;;5017742;28;20235;-71
2022/10/31 03:39:13;;;;;;;0.10;0.10;;;10.30;99.90;9.00;97450.00;;;;5035886;28;20285;-70
2022/10/31 03:41:46;;;;;;;0.10;0.10;;;10.10;99.90;8.90;97444.00;;;;5027256;28;20229;-71
2022/10/31 03:44:20;;;;;;;0.10;0.10;;;10.00;99.90;9.00;97442.00;;;;5033059;28;20313;-70
2022/10/31 03:46:56;;;;;;;0.10;0.10;;;10.00;99.90;8.90;97423.00;;;;5034741;28;20211;-70
2022/10/31 03:49:26;;;;;;;0.10;0.10;;;9.90;99.90;8.70;97458.00;;;;5027626;28;20208;-70
2022/10/31 03:52:05;;;;;;;0.10;0.10;;;9.80;99.90;8.70;97426.00;;;;5022947;28;20199;-70
2022/10/31 03:54:43;;;;;;;0.00;0.00;;;9.70;99.90;8.60;97436.00;;;;5026766;28;20360;-71
2022/10/31 03:57:22;;;;;;;0.00;0.00;;;9.70;99.90;8.70;97448.00;;;;5035266;28;20550;-71
2022/10/31 03:59:59;;;;;;;0.10;0.10;;;9.80;99.90;8.70;97444.00;;;;5025477;28;20224;-71
2022/10/31 04:02:33;;;;;;;0.10;0.10;;;9.70;99.90;8.90;97445.00;;;;5028969;28;20211;-72
2022/10/31 04:05:05;;;;;;;0.10;0.10;;;9.90;99.90;8.90;97443.00;;;;5028952;28;20587;-71
2022/10/31 04:07:41;;;;;;;0.10;0.10;;;10.00;99.90;9.10;97452.00;;;;5021788;28;20254;-72
2022/10/31 04:10:14;;;;;;;0.10;0.10;;;10.10;99.90;9.10;97452.00;;;;5020294;28;20199;-72
2022/10/31 04:12:51;;;;;;;0.10;0.10;;;10.10;99.90;9.00;97438.00;;;;5031584;28;20199;-71
2022/10/31 04:15:27;;;;;;;0.10;0.10;;;10.00;99.90;8.90;97425.00;;;;5031493;28;20305;-71
2022/10/31 04:18:00;;;;;;;0.10;0.10;;;10.00;99.90;8.90;97434.00;;;;5028353;28;20192;-72
2022/10/31 04:20:38;;;;;;;0.00;0.00;;;9.90;99.90;8.90;97448.00;;;;5021572;28;20234;-71
2022/10/31 04:23:17;;;;;;;0.10;0.10;;;9.90;99.90;9.00;97459.00;;;;5031826;28;20669;-71
2022/10/31 04:25:45;;;;;;;0.10;0.10;;;10.00;99.90;8.90;97448.00;;;;5028942;28;20225;-71
2022/10/31 04:28:14;;;;;;;0.10;0.10;;;9.90;99.90;9.00;97440.00;;;;5027293;28;20199;-71
2022/10/31 04:30:43;;;;;;;0.10;0.10;;;10.10;99.90;8.90;97441.00;;;;5014891;28;20198;-71
2022/10/31 04:33:11;;;;;;;0.10;0.10;;;10.00;99.90;8.80;97441.00;;;;5032986;28;20223;-71
2022/10/31 04:35:41;;;;;;;0.10;0.10;;;10.10;99.90;9.00;97435.00;;;;5029580;28;20228;-71
2022/10/31 04:38:10;;;;;;;0.10;0.10;;;10.10;99.90;9.10;97459.00;;;;5022162;28;20679;-71
2022/10/31 04:40:40;;;;;;;0.10;0.10;;;10.10;99.90;9.00;97440.00;;;;5021774;28;20235;-72
2022/10/31 04:43:28;;;;;;;0.10;0.10;;;10.10;99.90;9.00;97440.00;;;;5032692;28;20638;-72
2022/10/31 04:45:56;;;;;;;0.10;0.10;;;10.10;99.90;8.90;97446.00;;;;5026958;28;20695;-72
2022/10/31 04:48:24;;;;;;;0.00;0.00;;;10.00;99.90;8.80;97455.00;;;;5026489;28;20187;-71
2022/10/31 04:50:59;;;;;;;0.10;0.10;;;9.90;99.90;8.80;97447.00;;;;5022350;28;20297;-72
2022/10/31 04:53:27;;;;;;;0.10;0.10;;;9.80;99.90;8.70;97439.00;;;;5021033;28;20194;-71
2022/10/31 04:56:25;;;;;;;0.10;0.10;;;9.70;99.90;8.80;97442.00;;;;4980651;28;20247;-72
2022/10/31 04:58:58;;;;;;;0.10;0.10;;;9.80;99.90;8.80;97445.00;;;;5022212;28;20216;-71
2022/10/31 05:01:29;;;;;;;0.10;0.10;;;9.90;99.90;8.90;97462.00;;;;5012786;28;20207;-72
2022/10/31 05:04:00;;;;;;;0.00;0.00;;;10.00;99.90;8.90;97462.00;;;;5039975;28;20277;-72
2022/10/31 05:06:30;;;;;;;0.10;0.10;;;10.00;99.90;8.90;97468.00;;;;5023230;28;20219;-72
2022/10/31 05:08:58;;;;;;;0.10;0.10;;;10.00;99.90;8.70;97464.00;;;;5012324;28;20226;-72
2022/10/31 05:11:27;;;;;;;0.10;0.10;;;9.80;99.90;8.50;97450.00;;;;5011756;28;20671;-72
2022/10/31 05:14:00;;;;;;;0.10;0.10;;;9.60;99.90;8.50;97455.00;;;;5030507;28;20575;-72
2022/10/31 05:16:57;;;;;;;0.10;0.10;;;9.60;99.90;8.40;97457.00;;;;5020166;28;20213;-71
2022/10/31 05:19:44;;;;;;;0.10;0.10;;;9.40;99.90;8.30;97449.00;;;;5020639;28;20223;-71
2022/10/31 05:22:31;;;;;;;0.10;0.10;;;9.30;99.90;8.30;97456.00;;;;5029196;28;20245;-71
2022/10/31 05:25:00;;;;;;;0.10;0.10;;;9.30;99.90;8.40;97452.00;;;;5029997;28;20215;-72
2022/10/31 05:27:29;;;;;;;0.10;0.10;;;9.40;99.90;8.40;97450.00;;;;5027716;28;20199;-71
2022/10/31 05:29:57;;;;;;;0.00;0.00;;;9.50;99.90;8.40;97450.00;;;;5020025;28;20200;-73
2022/10/31 05:32:31;;;;;;;0.10;0.10;;;9.40;99.90;8.30;97437.00;;;;5021198;28;20202;-73
2022/10/31 05:35:25;;;;;;;0.10;0.10;;;9.40;99.90;8.30;97454.00;;;;5016186;28;20253;-71
2022/10/31 05:38:11;;;;;;;0.10;0.10;;;9.40;99.90;8.50;97439.00;;;;5035599;28;20286;-72
2022/10/31 05:40:39;;;;;;;0.10;0.10;;;9.50;99.90;8.40;97448.00;;;;5029230;28;20314;-71
2022/10/31 05:43:07;;;;;;;0.10;0.10;;;9.50;99.90;8.40;97455.00;;;;5047241;28;20624;-71
2022/10/31 05:45:35;;;;;;;0.10;0.10;;;9.50;99.90;8.40;97455.00;;;;5043771;28;20318;-71
2022/10/31 05:48:09;;;;;;;0.10;0.10;;;9.50;99.90;8.20;97457.00;;;;5021598;28;20195;-71
2022/10/31 05:50:57;;;;;;;0.00;0.00;;;9.30;99.90;8.20;97456.00;;;;5017294;28;20203;-71
2022/10/31 05:53:27;;;;;;;0.00;0.00;;;9.20;99.90;8.20;97467.00;;;;5027937;28;20230;-71
2022/10/31 05:55:55;;;;;;;0.10;0.10;;;9.20;99.90;8.20;97452.00;;;;5023250;28;20243;-71
2022/10/31 05:58:24;;;;;;;0.10;0.10;;;9.30;99.90;8.20;97460.00;;;;5039402;28;20199;-71
2022/10/31 06:01:03;;;;;;;0.10;0.10;;;9.30;99.90;8.10;97459.00;;;;5017554;28;20279;-71
2022/10/31 06:03:31;;;;;;;0.10;0.10;;;9.20;99.90;8.10;97449.00;;;;5013624;28;20200;-72
2022/10/31 06:06:02;;;;;;;0.10;0.10;;;9.20;99.90;8.20;97475.00;;;;5019844;28;20339;-72
2022/10/31 06:08:37;;;;;;;0.10;0.10;;;9.20;99.90;8.30;97467.00;;;;5028317;28;20227;-72
2022/10/31 06:11:12;;;;;;;0.10;0.10;;;9.40;99.90;8.20;97474.00;;;;5018043;28;20210;-70
2022/10/31 06:13:58;;;;;;;0.10;0.10;;;9.30;99.90;8.30;97463.00;;;;5024819;28;20213;-72
2022/10/31 06:16:34;;;;;;;0.10;0.10;;;9.40;99.90;8.30;97469.00;;;;5021141;28;20637;-71
2022/10/31 06:19:23;;;;;;;0.10;0.10;;;9.40;99.90;8.20;97452.00;;;;5023080;28;20305;-72
2022/10/31 06:21:51;;;;;;;0.03;0.03;;;9.40;99.90;8.10;97463.00;;;;5031599;28;20195;-71
2022/10/31 06:24:21;;;;;;;0.00;0.00;;;9.20;99.90;8.00;97448.00;;;;5019439;28;20192;-71
2022/10/31 06:27:01;;;;;;;0.10;0.10;;;9.10;99.90;7.90;97457.00;;;;5016930;28;20198;-70
2022/10/31 06:29:29;;;;;;;0.10;0.10;;;9.00;99.90;7.70;97453.00;;;;5020223;28;20207;-71
2022/10/31 06:32:04;;;;;;;0.10;0.10;;;8.80;99.90;7.70;97446.00;;;;5026631;28;20253;-70
2022/10/31 06:34:41;;;;;;;0.10;0.10;;;8.80;99.90;7.70;97478.00;;;;5010812;28;20224;-72
2022/10/31 06:37:11;;;;;;;0.10;0.10;;;8.70;99.90;7.80;97472.00;;;;5022006;28;20605;-71
2022/10/31 06:39:43;;;;;;;0.10;0.10;;;8.90;99.90;7.80;97480.00;;;;5029223;28;20811;-72
2022/10/31 06:42:15;;;;;;;0.10;0.10;;;8.90;99.90;7.90;97482.00;;;;5029696;28;20203;-71
2022/10/31 06:44:44;;;;;;;0.10;0.10;;;9.00;99.90;7.90;97476.00;;;;5066439;22;20229;-72
2022/10/31 06:47:52;;;;;;;0.10;0.10;;;9.00;99.90;8.00;97482.00;;;;4969823;28;20208;-73
2022/10/31 06:50:59;;;;;;;0.10;0.10;;;9.10;99.90;8.10;97489.00;;;;5051038;28;21301;-74
2022/10/31 06:53:29;;;;;;;0.10;0.10;;;9.10;99.90;8.10;97490.00;;;;5071125;28;20738;-74
2022/10/31 06:56:00;;;;;;;0.10;0.10;;;9.20;99.90;8.20;97495.00;;;;5055170;28;20271;-74
2022/10/31 06:58:29;;;;;;;0.05;0.05;;;9.30;99.90;8.30;97488.00;;;;5046139;28;20295;-74
2022/10/31 07:01:02;;;;;;;0.00;0.00;;;9.30;99.90;8.30;97509.00;;;;5058142;28;20222;-74
2022/10/31 07:03:31;;;;;;;0.10;0.10;;;9.30;99.90;8.30;97494.00;;;;5042770;28;20198;-74
2022/10/31 07:05:59;;;;;;;0.10;0.10;;;9.40;99.90;8.30;97519.00;;;;5053017;28;20225;-76
2022/10/31 07:08:28;;;;;;;0.10;0.10;;;9.30;99.90;8.40;97524.00;;;;5061935;28;20202;-73
2022/10/31 07:10:59;;;;;;;0.03;0.03;;;9.40;99.90;8.50;97512.00;;;;5062513;28;20222;-74
2022/10/31 07:13:29;;;;;;;0.10;0.10;;;9.50;99.90;8.40;97487.00;;;;5047132;28;20261;-75
2022/10/31 07:16:06;;;;;;;0.10;0.10;;;9.40;99.90;8.40;97498.00;;;;5042967;28;20205;-74
2022/10/31 07:18:36;;;;;;;0.10;0.10;;;9.40;99.90;8.50;97530.00;;;;5060927;28;20201;-74
2022/10/31 07:21:06;;;;;;;0.10;0.10;;;9.50;99.90;8.60;97536.00;;;;5046815;28;20222;-74
2022/10/31 07:23:34;;;;;;;0.10;0.10;;;9.60;99.90;8.60;97552.00;;;;5054230;28;20668;-74
2022/10/31 07:26:39;;;;;;;0.10;0.10;;;9.60;99.90;8.70;97546.00;;;;4972680;28;20356;-74
2022/10/31 07:29:07;;;;;;;0.10;0.10;;;9.70;99.90;8.70;97548.00;;;;5034577;28;20194;-74
2022/10/31 07:31:36;;;;;;;0.10;0.10;;;9.70;99.90;8.60;97539.00;;;;5053690;28;20217;-74
2022/10/31 07:34:10;;;;;;;0.10;0.10;;;9.60;99.90;8.50;97553.00;;;;5050556;28;20189;-74
2022/10/31 07:37:13;;;;;;;0.10;0.10;;;9.60;99.90;8.60;97549.00;;;;5047277;28;20209;-74
2022/10/31 07:39:42;;;;;;;0.10;0.10;;;9.60;99.90;8.60;97549.00;;;;5068087;28;20205;-74
2022/10/31 07:42:11;;;;;;;0.10;0.10;;;9.70;99.90;8.80;97546.00;;;;5038879;28;20203;-74
2022/10/31 07:44:44;;;;;;;0.10;0.10;;;9.80;99.90;8.90;97531.00;;;;5039099;28;20225;-74
2022/10/31 07:47:30;;;;;;;0.10;0.10;;;9.80;99.90;9.00;97547.00;;;;5062379;28;20216;-74
2022/10/31 07:50:19;;;;;;;0.10;0.10;;;9.90;99.90;9.10;97549.00;;;;5061847;28;20595;-74
2022/10/31 07:53:09;;;;;;;0.10;0.10;;;10.00;99.90;9.20;97553.00;;;;5055043;28;20276;-73
2022/10/31 07:55:49;;;;;;;0.10;0.10;;;10.10;99.90;9.20;97557.00;;;;5051940;28;20240;-74
2022/10/31 07:58:20;;;;;;;0.10;0.10;;;10.20;99.90;9.30;97547.00;;;;5060116;28;20190;-74
2022/10/31 08:00:49;;;;;;;0.10;0.10;;;10.30;99.90;9.40;97552.00;;;;5047389;28;20209;-74
2022/10/31 08:03:29;;;;;;;0.10;0.10;;;10.40;99.90;9.40;97544.00;;;;5055588;28;20247;-74
2022/10/31 08:06:15;;;;;;;0.10;0.10;;;10.40;99.90;9.50;97547.00;;;;5074516;28;20220;-74
2022/10/31 08:09:11;;;;;;;0.00;0.00;;;10.50;99.90;9.60;97540.00;;;;5044130;28;20202;-74
2022/10/31 08:11:40;;;;;;;0.10;0.10;;;10.60;99.90;9.70;97554.00;;;;5054096;28;20202;-74
2022/10/31 08:14:10;;;;;;;0.10;0.10;;;10.70;99.90;9.80;97556.00;;;;5055419;28;20190;-74
2022/10/31 08:16:38;;;;;;;0.10;0.10;;;10.80;99.90;9.80;97571.00;;;;5053187;28;20644;-74
2022/10/31 08:19:07;;;;;;;0.00;0.00;;;10.80;99.90;9.90;97559.00;;;;5065576;28;20308;-74
2022/10/31 08:21:38;;;;;;;0.10;0.10;;;10.80;99.90;9.90;97551.00;;;;5034560;28;20222;-74
2022/10/31 08:24:09;;;;;;;0.10;0.10;;;10.90;99.90;10.00;97561.00;;;;5052431;28;20183;-74
2022/10/31 08:26:37;;;;;;;0.10;0.10;;;10.90;99.90;10.10;97558.00;;;;5037397;28;20313;-74
2022/10/31 08:29:10;;;;;;;0.10;0.10;;;11.00;99.90;10.10;97559.00;;;;5064948;28;20190;-74
2022/10/31 08:31:40;;;;;;;0.10;0.10;;;11.00;99.90;10.20;97549.00;;;;5047256;28;20203;-74
2022/10/31 08:34:28;;;;;;;0.00;0.00;;;11.10;99.90;10.30;97547.00;;;;5072756;28;20687;-74
2022/10/31 08:37:19;;;;;;;0.10;0.10;;;11.10;99.90;10.40;97558.00;;;;5062299;28;20201;-74
2022/10/31 08:39:50;;;;;;;0.10;0.10;;;11.30;99.90;10.50;97550.00;;;;5065635;28;20575;-74
2022/10/31 08:42:19;;;;;;;0.10;0.10;;;11.40;99.90;10.60;97556.00;;;;5069870;28;20232;-74
2022/10/31 08:44:48;;;;;;;0.00;0.00;;;11.40;99.90;10.70;97549.00;;;;5059853;28;20214;-74
2022/10/31 08:47:18;;;;;;;0.00;0.00;;;11.50;99.90;10.80;97546.00;;;;5061336;28;20604;-74
2022/10/31 08:49:48;;;;;;;0.10;0.10;;;11.70;99.90;10.90;97534.00;;;;5035038;28;20206;-74
2022/10/31 08:52:16;;;;;;;0.10;0.10;;;11.70;99.90;11.00;97558.00;;;;5043613;28;20212;-74
2022/10/31 08:54:47;;;;;;;0.00;0.00;;;11.80;99.90;11.10;97543.00;;;;5054110;28;20253;-74
2022/10/31 08:57:34;;;;;;;0.10;0.10;;;11.90;99.90;11.20;97548.00;;;;5059404;28;20313;-74
2022/10/31 09:00:05;;;;;;;0.00;0.00;;;12.00;99.90;11.30;97531.00;;;;5046300;28;20574;-74
2022/10/31 09:02:42;;;;;;;0.10;0.10;;;12.10;99.90;11.40;97524.00;;;;5059929;28;20302;-75
2022/10/31 09:05:10;;;;;;;0.10;0.10;;;12.20;99.90;11.50;97524.00;;;;5070035;28;20232;-74
2022/10/31 09:07:38;;;;;;;0.10;0.10;;;12.30;99.90;11.60;97545.00;;;;5041676;28;20388;-74
2022/10/31 09:10:07;;;;;;;0.10;0.10;;;12.40;99.90;11.70;97530.00;;;;5053482;28;20548;-74
2022/10/31 09:12:38;;;;;;;0.10;0.10;;;12.50;99.90;11.80;97524.00;;;;5045339;28;20588;-74
2022/10/31 09:15:28;;;;;;;0.00;0.00;;;12.60;99.90;11.90;97525.00;;;;5063284;28;20274;-74
2022/10/31 09:18:10;;;;;;;0.00;0.00;;;12.70;99.90;12.10;97520.00;;;;5056640;28;20660;-74
2022/10/31 09:20:47;;;;;;;0.10;0.10;;;12.90;99.90;12.20;97523.00;;;;5072138;28;20739;-74
2022/10/31 09:23:18;;;;;;;0.10;0.10;;;12.90;99.90;12.30;97535.00;;;;5052206;28;20202;-74
2022/10/31 09:25:47;;;;;;;0.10;0.10;;;13.10;99.90;12.40;97529.00;;;;5059452;28;20209;-74
2022/10/31 09:28:34;;;;;;;0.10;0.10;;;13.20;99.90;12.50;97512.00;;;;5041007;28;20202;-73
2022/10/31 09:31:12;;;;;;;0.10;0.10;;;13.30;99.90;12.70;97534.00;;;;5055319;28;20202;-75
2022/10/31 09:33:59;;;;;;;0.10;0.10;;;13.40;99.90;12.80;97525.00;;;;5040329;28;20259;-74
2022/10/31 09:36:38;;;;;;;0.00;0.00;;;13.50;99.90;12.90;97537.00;;;;5060828;28;20684;-74
2022/10/31 09:39:13;;;;;;;0.00;0.00;;;13.60;99.90;13.00;97527.00;;;;5064018;28;20205;-74
2022/10/31 09:42:07;;;;;;;0.10;0.10;;;13.80;99.90;13.20;97536.00;;;;5059677;28;20231;-74
2022/10/31 09:44:52;;;;;;;0.10;0.10;;;14.00;99.90;13.40;97532.00;;;;5048226;28;20198;-74
2022/10/31 09:47:51;;;;;;;0.10;0.10;;;14.10;99.90;13.60;97534.00;;;;5044709;28;20210;-74
2022/10/31 09:50:43;;;;;;;0.00;0.00;;;14.30;99.90;13.70;97529.00;;;;5071564;28;20287;-74
2022/10/31 09:53:39;;;;;;;0.00;0.00;;;14.40;99.90;13.80;97533.00;;;;5052317;28;20195;-75
2022/10/31 09:56:16;;;;;;;0.00;0.00;;;14.50;99.90;14.00;97526.00;;;;5057008;28;20213;-75
2022/10/31 09:58:50;;;;;;;0.10;0.10;;;14.70;99.90;14.10;97539.00;;;;5050139;28;20201;-75
2022/10/31 10:01:38;;;;;;;0.00;0.00;;;14.80;99.90;14.30;97533.00;;;;5059718;28;20206;-75
2022/10/31 10:04:40;;;;;;;0.00;0.00;;;14.90;99.90;14.50;97533.00;;;;5050947;28;20251;-75
2022/10/31 10:07:30;;;;;;;0.00;0.00;;;15.10;99.90;14.60;97522.00;;;;5062543;28;20558;-75
2022/10/31 10:10:36;;;;;;;0.00;0.00;;;15.20;99.90;14.70;97527.00;;;;5068711;28;20189;-75
2022/10/31 10:14:01;;;;;;;0.00;0.00;;;15.30;99.90;14.80;97530.00;;;;5061265;28;20206;-75
2022/10/31 10:17:03;;;;;;;0.00;0.00;;;15.50;99.90;15.00;97533.00;;;;5037282;28;20232;-75
2022/10/31 10:19:55;;;;;;;0.00;0.00;;;15.60;99.90;15.10;97725.00;;;;5067722;28;20197;-75
2022/10/31 10:22:38;;;;;;;0.00;0.00;;;15.70;99.90;15.20;97724.00;;;;5060378;28;20217;-75
2022/10/31 10:25:21;;;;;;;0.00;0.00;;;15.80;99.90;15.20;97721.00;;;;5054084;28;20241;-75
2022/10/31 10:28:04;;;;;;;0.00;0.00;;;15.90;99.90;15.30;97720.00;;;;5057706;28;20196;-73
2022/10/31 10:30:42;;;;;;;0.00;0.00;;;15.90;99.90;15.40;97720.00;;;;5061186;28;20664;-73
2022/10/31 10:33:17;;;;;;;0.00;0.00;;;16.00;99.90;15.40;97703.00;;;;5062382;28;20318;-73
2022/10/31 10:40:04;;;;;;;0.00;0.00;;;16.20;99.90;15.70;97721.00;;;;5054957;28;20204;-73
2022/10/31 10:43:24;;;;;;;0.00;0.00;;;16.30;99.90;15.80;97746.00;;;;5055761;28;20221;-73
2022/10/31 10:49:05;;;;;;;0.00;0.00;;;16.50;99.90;15.90;97736.00;;;;5061938;28;20225;-74
2022/10/31 10:51:45;;;;;;;0.00;0.00;;;16.60;99.90;16.00;97740.00;;;;5075268;28;20310;-74
2022/10/31 10:55:02;;;;;;;0.00;0.00;;;16.70;99.90;16.10;97730.00;;;;5062516;28;20698;-73
2022/10/31 10:57:56;;;;;;;0.00;0.00;;;16.70;99.90;16.20;97728.00;;;;5064259;28;20213;-73
2022/10/31 11:00:28;;;;;;;0.10;0.10;;;16.90;99.90;16.40;97666.00;;;;5083741;28;20239;-74
2022/10/31 11:02:57;;;;;;;0.00;0.00;;;16.90;99.90;16.50;97722.00;;;;5080882;28;20305;-73
2022/10/31 11:05:34;;;;;;;0.00;0.00;;;17.10;99.90;16.60;97489.00;;;;5072004;28;20225;-74
2022/10/31 11:08:06;;;;;;;0.00;0.00;;;17.20;99.90;16.70;97536.00;;;;5073759;28;20202;-73
2022/10/31 11:10:34;;;;;;;0.00;0.00;;;17.30;99.90;16.80;97544.00;;;;5066922;28;20631;-73
2022/10/31 11:13:23;;;;;;;0.00;0.00;;;17.30;99.90;16.80;97529.00;;;;5067167;28;20204;-74
2022/10/31 11:15:59;;;;;;;0.00;0.00;;;17.40;99.90;16.90;97702.00;;;;5060197;28;20264;-74
2022/10/31 11:18:30;;;;;;;0.00;0.00;;;17.50;99.90;17.00;97704.00;;;;5063104;28;20197;-74
2022/10/31 11:21:03;;;;;;;0.00;0.00;;;17.50;99.90;17.10;97707.00;;;;5065561;28;21656;-74
2022/10/31 11:23:42;;;;;;;0.00;0.00;;;17.60;99.90;17.10;97495.00;;;;5056606;28;20218;-74
2022/10/31 11:26:24;;;;;;;0.00;0.00;;;17.70;99.90;17.20;97491.00;;;;5061166;28;20240;-74
2022/10/31 11:28:58;;;;;;;0.00;0.00;;;17.70;99.90;17.30;97488.00;;;;5063208;28;20677;-74
2022/10/31 11:31:28;;;;;;;0.00;0.00;;;17.80;99.90;17.40;97503.00;;;;5070831;28;20197;-74
2022/10/31 11:34:01;;;;;;;0.00;0.00;;;17.90;99.90;17.70;97503.00;;;;5067135;28;20209;-75
2022/10/31 11:36:36;;;;;;;0.00;0.00;;;17.90;99.90;18.30;97505.00;;;;5064126;28;20222;-74
2022/10/31 11:39:16;;;;;;;0.00;0.00;;;18.10;99.90;18.80;97502.00;;;;5059730;28;20256;-75
2022/10/31 11:41:46;;;;;;;0.00;0.00;;;18.20;99.90;19.50;97500.00;;;;5053551;28;20190;-75
2022/10/31 11:44:19;;;;;;;0.00;0.00;;;18.50;99.90;20.40;97501.00;;;;5053858;28;20190;-75
2022/10/31 11:46:54;;;;;;;0.00;0.00;;;18.70;99.90;21.00;97495.00;;;;5061571;28;20711;-74